EZY68LM EGKK-LSZH
Flight info
| Callsign | EZY68LM |
|---|---|
| Flight time | N/A |
| Altitude | 29000 |
| Route | ODVIK Y311 DVR UL9 KONAN DCT KOK DCT REMBA DCT RITAX DCT SUTAL DCT GTQ DCT BAMEV DCT BLM |
| Aircraft | A320/M-SDE3FGHIRWY/LB1 |
Departure
| Time | 2026-05-05 11:33 |
|---|---|
| Airport | London Gatwick Airport (EGKK) |
Arrival
| Time | N/A |
|---|---|
| Airport | Zürich Airport (LSZH) |
| Time | Latitude | Longitude | Altitude | Speed | Heading |
|---|---|---|---|---|---|
| 2026-05-05 10:50 | 51.15501 | -0.16838 | 205 ft | 0 kts | 346° |
| 2026-05-05 11:16 | 51.15491 | -0.16834 | 205 ft | 2 kts | 344° |
| 2026-05-05 11:16 | 51.15475 | -0.16827 | 215 ft | 2 kts | 342° |
| 2026-05-05 11:16 | 51.15460 | -0.16818 | 215 ft | 2 kts | 328° |
| 2026-05-05 11:16 | 51.15449 | -0.16799 | 215 ft | 2 kts | 259° |
| 2026-05-05 11:17 | 51.15451 | -0.16786 | 214 ft | 0 kts | 257° |
| 2026-05-05 11:19 | 51.15448 | -0.16806 | 216 ft | 5 kts | 257° |
| 2026-05-05 11:19 | 51.15440 | -0.16857 | 205 ft | 4 kts | 257° |
| 2026-05-05 11:19 | 51.15433 | -0.16907 | 206 ft | 4 kts | 257° |
| 2026-05-05 11:19 | 51.15427 | -0.16947 | 210 ft | 4 kts | 256° |
| 2026-05-05 11:20 | 51.15415 | -0.17038 | 214 ft | 10 kts | 257° |
| 2026-05-05 11:20 | 51.15407 | -0.17090 | 208 ft | 0 kts | 257° |
| 2026-05-05 11:20 | 51.15399 | -0.17134 | 215 ft | 5 kts | 247° |
| 2026-05-05 11:21 | 51.15383 | -0.17191 | 210 ft | 5 kts | 248° |
| 2026-05-05 11:21 | 51.15365 | -0.17278 | 211 ft | 10 kts | 253° |
| 2026-05-05 11:21 | 51.15330 | -0.17354 | 204 ft | 8 kts | 202° |
| 2026-05-05 11:21 | 51.15298 | -0.17411 | 207 ft | 7 kts | 255° |
| 2026-05-05 11:22 | 51.15288 | -0.17503 | 208 ft | 9 kts | 259° |
| 2026-05-05 11:22 | 51.15275 | -0.17607 | 204 ft | 13 kts | 258° |
| 2026-05-05 11:22 | 51.15254 | -0.17769 | 206 ft | 14 kts | 256° |
| 2026-05-05 11:22 | 51.15232 | -0.17916 | 204 ft | 13 kts | 256° |
| 2026-05-05 11:23 | 51.15213 | -0.18046 | 213 ft | 11 kts | 257° |
| 2026-05-05 11:23 | 51.15198 | -0.18162 | 213 ft | 10 kts | 258° |
| 2026-05-05 11:23 | 51.15184 | -0.18266 | 209 ft | 10 kts | 258° |
| 2026-05-05 11:23 | 51.15171 | -0.18372 | 211 ft | 9 kts | 260° |
| 2026-05-05 11:24 | 51.15156 | -0.18493 | 210 ft | 15 kts | 259° |
| 2026-05-05 11:24 | 51.15132 | -0.18685 | 204 ft | 16 kts | 258° |
| 2026-05-05 11:24 | 51.15109 | -0.18850 | 210 ft | 14 kts | 258° |
| 2026-05-05 11:24 | 51.15089 | -0.18993 | 208 ft | 12 kts | 257° |
| 2026-05-05 11:25 | 51.15072 | -0.19114 | 214 ft | 10 kts | 258° |
| 2026-05-05 11:25 | 51.15058 | -0.19219 | 204 ft | 9 kts | 258° |
| 2026-05-05 11:25 | 51.15046 | -0.19309 | 207 ft | 8 kts | 258° |
| 2026-05-05 11:25 | 51.15030 | -0.19426 | 210 ft | 15 kts | 257° |
| 2026-05-05 11:26 | 51.15007 | -0.19585 | 208 ft | 14 kts | 256° |
| 2026-05-05 11:26 | 51.14987 | -0.19730 | 205 ft | 14 kts | 258° |
| 2026-05-05 11:26 | 51.14968 | -0.19874 | 207 ft | 13 kts | 258° |
| 2026-05-05 11:26 | 51.14949 | -0.20005 | 206 ft | 12 kts | 257° |
| 2026-05-05 11:27 | 51.14933 | -0.20124 | 205 ft | 10 kts | 257° |
| 2026-05-05 11:27 | 51.14919 | -0.20229 | 204 ft | 11 kts | 258° |
| 2026-05-05 11:27 | 51.14894 | -0.20415 | 207 ft | 20 kts | 258° |
| 2026-05-05 11:27 | 51.14865 | -0.20626 | 206 ft | 18 kts | 258° |
| 2026-05-05 11:28 | 51.14843 | -0.20782 | 204 ft | 13 kts | 257° |
| 2026-05-05 11:28 | 51.14826 | -0.20909 | 216 ft | 11 kts | 258° |
| 2026-05-05 11:28 | 51.14811 | -0.21016 | 209 ft | 9 kts | 257° |
| 2026-05-05 11:28 | 51.14799 | -0.21104 | 214 ft | 8 kts | 257° |
| 2026-05-05 11:29 | 51.14780 | -0.21178 | 212 ft | 8 kts | 249° |
| 2026-05-05 11:29 | 51.14762 | -0.21303 | 204 ft | 13 kts | 257° |
| 2026-05-05 11:29 | 51.14719 | -0.21396 | 207 ft | 10 kts | 182° |
| 2026-05-05 11:29 | 51.14662 | -0.21359 | 216 ft | 8 kts | 134° |
| 2026-05-05 11:30 | 51.14618 | -0.21322 | 210 ft | 6 kts | 167° |
| 2026-05-05 11:30 | 51.14613 | -0.21320 | 211 ft | 0 kts | 166° |
| 2026-05-05 11:31 | 51.14586 | -0.21309 | 213 ft | 11 kts | 165° |
| 2026-05-05 11:31 | 51.14519 | -0.21214 | 212 ft | 14 kts | 109° |
| 2026-05-05 11:32 | 51.14520 | -0.21119 | 206 ft | 0 kts | 78° |
| 2026-05-05 11:32 | 51.14522 | -0.21105 | 204 ft | 8 kts | 78° |
| 2026-05-05 11:32 | 51.14590 | -0.20617 | 208 ft | 80 kts | 77° |
| 2026-05-05 11:32 | 51.14753 | -0.19445 | 212 ft | 135 kts | 77° |
| 2026-05-05 11:33 | 51.14989 | -0.17769 | 318 ft | 169 kts | 76° |
| 2026-05-05 11:33 | 51.15236 | -0.15925 | 1024 ft | 170 kts | 75° |
| 2026-05-05 11:33 | 51.15492 | -0.14075 | 1775 ft | 174 kts | 74° |
| 2026-05-05 11:33 | 51.15771 | -0.12089 | 2092 ft | 195 kts | 74° |
| 2026-05-05 11:34 | 51.16081 | -0.09867 | 2416 ft | 220 kts | 76° |
| 2026-05-05 11:34 | 51.16428 | -0.07354 | 2872 ft | 242 kts | 75° |
| 2026-05-05 11:34 | 51.16792 | -0.04680 | 3631 ft | 250 kts | 78° |
| 2026-05-05 11:34 | 51.16878 | -0.01899 | 4512 ft | 254 kts | 91° |
| 2026-05-05 11:35 | 51.16821 | 0.00941 | 5396 ft | 258 kts | 91° |
| 2026-05-05 11:35 | 51.16764 | 0.03830 | 6193 ft | 264 kts | 91° |
| 2026-05-05 11:35 | 51.16708 | 0.06789 | 6923 ft | 271 kts | 91° |
| 2026-05-05 11:35 | 51.16653 | 0.09826 | 7691 ft | 276 kts | 91° |
| 2026-05-05 11:36 | 51.16597 | 0.12903 | 8488 ft | 280 kts | 91° |
| 2026-05-05 11:36 | 51.16540 | 0.16025 | 9397 ft | 284 kts | 91° |
| 2026-05-05 11:36 | 51.16520 | 0.19197 | 10018 ft | 288 kts | 89° |
| 2026-05-05 11:36 | 51.16528 | 0.22401 | 10627 ft | 291 kts | 89° |
| 2026-05-05 11:37 | 51.16544 | 0.25634 | 11401 ft | 293 kts | 89° |
| 2026-05-05 11:37 | 51.16560 | 0.28900 | 12175 ft | 295 kts | 89° |
| 2026-05-05 11:37 | 51.16573 | 0.32171 | 12932 ft | 297 kts | 89° |
| 2026-05-05 11:37 | 51.16582 | 0.35485 | 13677 ft | 300 kts | 89° |
| 2026-05-05 11:38 | 51.16589 | 0.38820 | 14360 ft | 302 kts | 89° |
| 2026-05-05 11:38 | 51.16594 | 0.42188 | 14984 ft | 306 kts | 89° |
| 2026-05-05 11:38 | 51.16598 | 0.45587 | 15602 ft | 309 kts | 90° |
| 2026-05-05 11:38 | 51.16599 | 0.49027 | 16215 ft | 312 kts | 90° |
| 2026-05-05 11:39 | 51.16599 | 0.52547 | 16385 ft | 332 kts | 90° |
| 2026-05-05 11:39 | 51.16596 | 0.56321 | 16518 ft | 350 kts | 90° |
| 2026-05-05 11:39 | 51.16589 | 0.60295 | 16637 ft | 367 kts | 90° |
| 2026-05-05 11:39 | 51.16581 | 0.64456 | 16783 ft | 382 kts | 90° |
| 2026-05-05 11:40 | 51.16573 | 0.68729 | 17183 ft | 389 kts | 90° |
| 2026-05-05 11:40 | 51.16566 | 0.73057 | 17672 ft | 393 kts | 90° |
| 2026-05-05 11:40 | 51.16558 | 0.77431 | 18170 ft | 396 kts | 90° |
| 2026-05-05 11:40 | 51.16548 | 0.81842 | 18562 ft | 400 kts | 90° |
| 2026-05-05 11:41 | 51.16536 | 0.86289 | 19025 ft | 402 kts | 90° |
| 2026-05-05 11:41 | 51.16521 | 0.90754 | 19480 ft | 405 kts | 91° |
| 2026-05-05 11:41 | 51.16502 | 0.95252 | 19941 ft | 407 kts | 91° |
| 2026-05-05 11:41 | 51.16482 | 0.99781 | 20390 ft | 409 kts | 91° |
| 2026-05-05 11:42 | 51.16447 | 1.04333 | 20852 ft | 412 kts | 92° |
| 2026-05-05 11:42 | 51.16355 | 1.08842 | 21291 ft | 414 kts | 94° |
| 2026-05-05 11:42 | 51.16214 | 1.13432 | 21732 ft | 416 kts | 94° |
| 2026-05-05 11:42 | 51.16043 | 1.18045 | 22165 ft | 418 kts | 95° |
| 2026-05-05 11:43 | 51.15861 | 1.22684 | 22591 ft | 421 kts | 95° |
| 2026-05-05 11:43 | 51.15684 | 1.27349 | 23004 ft | 423 kts | 95° |
| 2026-05-05 11:43 | 51.15515 | 1.32044 | 23407 ft | 425 kts | 95° |
| 2026-05-05 11:43 | 51.15407 | 1.35226 | 23656 ft | 427 kts | 95° |
| 2026-05-05 11:44 | 51.15199 | 1.41502 | 24088 ft | 430 kts | 95° |
| 2026-05-05 11:44 | 51.15094 | 1.44721 | 24304 ft | 431 kts | 95° |
| 2026-05-05 11:44 | 51.14938 | 1.49441 | 24625 ft | 434 kts | 95° |
| 2026-05-05 11:44 | 51.14774 | 1.54246 | 24940 ft | 436 kts | 95° |
| 2026-05-05 11:45 | 51.14605 | 1.59072 | 25255 ft | 438 kts | 95° |
| 2026-05-05 11:45 | 51.14429 | 1.63923 | 25563 ft | 440 kts | 95° |
| 2026-05-05 11:45 | 51.14248 | 1.68812 | 25863 ft | 442 kts | 95° |
| 2026-05-05 11:45 | 51.14066 | 1.73708 | 26159 ft | 445 kts | 95° |
| 2026-05-05 11:46 | 51.13884 | 1.78641 | 26442 ft | 447 kts | 95° |
| 2026-05-05 11:46 | 51.13700 | 1.83585 | 26720 ft | 449 kts | 95° |
| 2026-05-05 11:46 | 51.13516 | 1.88556 | 26994 ft | 451 kts | 95° |
| 2026-05-05 11:46 | 51.13328 | 1.93549 | 27262 ft | 453 kts | 95° |
| 2026-05-05 11:47 | 51.13136 | 1.98558 | 27532 ft | 455 kts | 95° |
| 2026-05-05 11:47 | 51.12930 | 2.03587 | 27799 ft | 456 kts | 96° |
| 2026-05-05 11:47 | 51.12681 | 2.08640 | 28072 ft | 458 kts | 97° |
| 2026-05-05 11:47 | 51.12400 | 2.13704 | 28364 ft | 459 kts | 97° |
| 2026-05-05 11:48 | 51.11814 | 2.23802 | 28926 ft | 457 kts | 97° |
| 2026-05-05 11:48 | 51.11249 | 2.33778 | 28940 ft | 455 kts | 97° |
| 2026-05-05 11:49 | 51.10694 | 2.43792 | 28941 ft | 454 kts | 97° |
| 2026-05-05 11:49 | 51.10134 | 2.53815 | 28944 ft | 454 kts | 97° |
| 2026-05-05 11:50 | 51.09523 | 2.63824 | 28946 ft | 453 kts | 101° |
| 2026-05-05 11:50 | 51.07974 | 2.73491 | 28939 ft | 451 kts | 108° |
| 2026-05-05 11:51 | 51.06234 | 2.83061 | 28934 ft | 451 kts | 108° |
| 2026-05-05 11:51 | 51.04498 | 2.92638 | 28931 ft | 451 kts | 108° |
| 2026-05-05 11:52 | 51.02761 | 3.02163 | 28922 ft | 451 kts | 108° |
| 2026-05-05 11:52 | 51.00998 | 3.11732 | 28915 ft | 452 kts | 108° |
| 2026-05-05 11:53 | 50.99220 | 3.21307 | 28908 ft | 452 kts | 108° |
| 2026-05-05 11:53 | 50.97440 | 3.30879 | 28907 ft | 452 kts | 108° |
| 2026-05-05 11:54 | 50.95655 | 3.40456 | 28901 ft | 453 kts | 108° |
| 2026-05-05 11:54 | 50.93855 | 3.50026 | 28898 ft | 453 kts | 109° |
| 2026-05-05 11:55 | 50.92050 | 3.59590 | 28896 ft | 453 kts | 109° |
| 2026-05-05 11:55 | 50.90240 | 3.69155 | 28900 ft | 453 kts | 109° |
| 2026-05-05 11:56 | 50.88417 | 3.78709 | 28902 ft | 453 kts | 109° |
| 2026-05-05 11:56 | 50.86584 | 3.88246 | 28900 ft | 453 kts | 110° |
| 2026-05-05 11:57 | 50.84747 | 3.97768 | 28901 ft | 452 kts | 110° |
| 2026-05-05 11:57 | 50.82914 | 4.07279 | 28910 ft | 452 kts | 110° |
| 2026-05-05 11:58 | 50.81088 | 4.16706 | 28905 ft | 451 kts | 110° |
| 2026-05-05 11:58 | 50.79222 | 4.26242 | 28908 ft | 450 kts | 110° |
| 2026-05-05 11:59 | 50.77361 | 4.35681 | 28911 ft | 450 kts | 111° |
| 2026-05-05 11:59 | 50.75512 | 4.45041 | 28920 ft | 449 kts | 111° |
| 2026-05-05 12:00 | 50.73644 | 4.54454 | 28909 ft | 449 kts | 111° |
| 2026-05-05 12:00 | 50.71775 | 4.63849 | 28902 ft | 448 kts | 111° |
| 2026-05-05 12:01 | 50.69896 | 4.73222 | 28900 ft | 448 kts | 111° |
| 2026-05-05 12:01 | 50.68002 | 4.82592 | 28887 ft | 448 kts | 111° |
| 2026-05-05 12:02 | 50.65491 | 4.91471 | 28880 ft | 441 kts | 126° |
| 2026-05-05 12:02 | 50.61518 | 4.98701 | 28876 ft | 436 kts | 138° |
| 2026-05-05 12:03 | 50.57187 | 5.05399 | 28870 ft | 436 kts | 138° |
| 2026-05-05 12:03 | 50.52887 | 5.12047 | 28876 ft | 437 kts | 138° |
| 2026-05-05 12:04 | 50.48534 | 5.18763 | 28866 ft | 437 kts | 138° |
| 2026-05-05 12:04 | 50.44192 | 5.25447 | 28871 ft | 437 kts | 138° |
| 2026-05-05 12:05 | 50.39839 | 5.32118 | 28869 ft | 438 kts | 138° |
| 2026-05-05 12:05 | 50.35473 | 5.38786 | 28872 ft | 438 kts | 138° |
| 2026-05-05 12:06 | 50.31103 | 5.45454 | 28858 ft | 438 kts | 138° |
| 2026-05-05 12:06 | 50.26730 | 5.52096 | 28855 ft | 438 kts | 138° |
| 2026-05-05 12:07 | 50.22350 | 5.58732 | 28856 ft | 438 kts | 138° |
| 2026-05-05 12:07 | 50.18005 | 5.65313 | 28848 ft | 438 kts | 138° |
| 2026-05-05 12:08 | 50.13625 | 5.71913 | 28843 ft | 439 kts | 139° |
| 2026-05-05 12:08 | 50.09215 | 5.78516 | 28838 ft | 438 kts | 139° |
| 2026-05-05 12:09 | 50.04318 | 5.84057 | 28838 ft | 434 kts | 150° |
| 2026-05-05 12:09 | 49.99198 | 5.89001 | 28840 ft | 435 kts | 150° |
| 2026-05-05 12:10 | 49.94062 | 5.93961 | 28838 ft | 435 kts | 150° |
| 2026-05-05 12:10 | 49.88925 | 5.98911 | 28853 ft | 434 kts | 150° |
| 2026-05-05 12:11 | 49.83781 | 6.03850 | 28870 ft | 435 kts | 150° |
| 2026-05-05 12:11 | 49.78636 | 6.08793 | 28869 ft | 434 kts | 150° |
| 2026-05-05 12:12 | 49.73515 | 6.13696 | 28851 ft | 432 kts | 150° |
| 2026-05-05 12:12 | 49.68394 | 6.18586 | 28842 ft | 432 kts | 150° |
| 2026-05-05 12:13 | 49.63263 | 6.23462 | 28845 ft | 433 kts | 150° |
| 2026-05-05 12:13 | 49.58164 | 6.28302 | 28846 ft | 434 kts | 150° |
| 2026-05-05 12:14 | 49.53021 | 6.33172 | 28845 ft | 434 kts | 150° |
| 2026-05-05 12:14 | 49.47867 | 6.38029 | 28846 ft | 434 kts | 150° |
| 2026-05-05 12:15 | 49.42427 | 6.42049 | 28848 ft | 433 kts | 158° |
| 2026-05-05 12:15 | 49.36918 | 6.45797 | 28856 ft | 433 kts | 158° |
| 2026-05-05 12:16 | 49.31401 | 6.49555 | 28859 ft | 433 kts | 158° |
| 2026-05-05 12:16 | 49.25887 | 6.53288 | 28867 ft | 433 kts | 158° |
| 2026-05-05 12:17 | 49.20414 | 6.56990 | 28872 ft | 433 kts | 157° |
| 2026-05-05 12:17 | 49.14910 | 6.60704 | 28876 ft | 432 kts | 157° |
| 2026-05-05 12:18 | 49.09417 | 6.64400 | 28884 ft | 431 kts | 157° |
| 2026-05-05 12:18 | 49.03924 | 6.68075 | 28886 ft | 431 kts | 157° |
| 2026-05-05 12:19 | 48.98443 | 6.71741 | 28883 ft | 430 kts | 158° |
| 2026-05-05 12:19 | 48.92910 | 6.75178 | 28884 ft | 429 kts | 160° |
| 2026-05-05 12:20 | 48.87328 | 6.78398 | 28890 ft | 429 kts | 160° |
| 2026-05-05 12:20 | 48.81752 | 6.81628 | 28889 ft | 428 kts | 160° |
| 2026-05-05 12:21 | 48.76204 | 6.84890 | 28889 ft | 428 kts | 159° |
| 2026-05-05 12:21 | 48.70658 | 6.88172 | 28889 ft | 427 kts | 159° |
| 2026-05-05 12:22 | 48.65128 | 6.91434 | 28892 ft | 426 kts | 159° |
| 2026-05-05 12:22 | 48.59600 | 6.94673 | 28890 ft | 426 kts | 159° |
| 2026-05-05 12:23 | 48.54075 | 6.97899 | 28892 ft | 426 kts | 159° |
| 2026-05-05 12:23 | 48.48563 | 7.01116 | 28889 ft | 425 kts | 159° |
| 2026-05-05 12:24 | 48.43049 | 7.04333 | 28887 ft | 424 kts | 159° |
| 2026-05-05 12:24 | 48.37576 | 7.07513 | 28882 ft | 424 kts | 159° |
| 2026-05-05 12:25 | 48.32024 | 7.10733 | 28877 ft | 425 kts | 159° |
| 2026-05-05 12:25 | 48.26512 | 7.13910 | 28873 ft | 424 kts | 159° |
| 2026-05-05 12:26 | 48.20997 | 7.17078 | 28857 ft | 424 kts | 159° |
| 2026-05-05 12:26 | 48.15521 | 7.20234 | 28855 ft | 425 kts | 159° |
| 2026-05-05 12:27 | 48.09968 | 7.23432 | 28854 ft | 425 kts | 159° |
| 2026-05-05 12:27 | 48.04446 | 7.26588 | 28727 ft | 420 kts | 159° |
| 2026-05-05 12:28 | 48.01762 | 7.28126 | 28450 ft | 407 kts | 159° |
| 2026-05-05 12:28 | 47.99149 | 7.29622 | 28182 ft | 397 kts | 159° |
| 2026-05-05 12:28 | 47.96623 | 7.31066 | 28025 ft | 379 kts | 160° |
| 2026-05-05 12:28 | 47.94218 | 7.32438 | 27641 ft | 363 kts | 160° |
| 2026-05-05 12:29 | 47.91852 | 7.33786 | 26504 ft | 366 kts | 160° |
| 2026-05-05 12:29 | 47.89465 | 7.35139 | 25491 ft | 367 kts | 160° |
| 2026-05-05 12:29 | 47.87076 | 7.36489 | 24618 ft | 366 kts | 160° |
| 2026-05-05 12:29 | 47.84726 | 7.37819 | 23971 ft | 367 kts | 160° |
| 2026-05-05 12:30 | 47.82308 | 7.39188 | 23315 ft | 365 kts | 160° |
| 2026-05-05 12:30 | 47.79978 | 7.40510 | 22449 ft | 361 kts | 160° |
| 2026-05-05 12:30 | 47.77664 | 7.41826 | 21968 ft | 349 kts | 160° |
| 2026-05-05 12:30 | 47.75441 | 7.43090 | 21596 ft | 336 kts | 160° |
| 2026-05-05 12:31 | 47.73276 | 7.44318 | 20957 ft | 330 kts | 160° |
| 2026-05-05 12:31 | 47.71151 | 7.45515 | 20426 ft | 322 kts | 161° |
| 2026-05-05 12:31 | 47.69084 | 7.46676 | 19921 ft | 314 kts | 161° |
| 2026-05-05 12:31 | 47.67047 | 7.47829 | 19442 ft | 315 kts | 159° |
| 2026-05-05 12:32 | 47.65118 | 7.49408 | 18964 ft | 319 kts | 145° |
| 2026-05-05 12:32 | 47.63976 | 7.50867 | 18639 ft | 323 kts | 136° |
| 2026-05-05 12:32 | 47.62611 | 7.53532 | 18165 ft | 328 kts | 122° |
| 2026-05-05 12:32 | 47.61707 | 7.56663 | 17639 ft | 333 kts | 111° |
| 2026-05-05 12:33 | 47.60969 | 7.59901 | 17240 ft | 331 kts | 111° |
| 2026-05-05 12:33 | 47.60223 | 7.63119 | 16870 ft | 329 kts | 111° |
| 2026-05-05 12:33 | 47.59470 | 7.66328 | 16421 ft | 326 kts | 112° |
| 2026-05-05 12:33 | 47.58728 | 7.69467 | 15915 ft | 320 kts | 112° |
| 2026-05-05 12:34 | 47.58004 | 7.72535 | 15504 ft | 311 kts | 112° |
| 2026-05-05 12:34 | 47.57311 | 7.75477 | 15115 ft | 303 kts | 112° |
| 2026-05-05 12:34 | 47.56627 | 7.78382 | 14877 ft | 291 kts | 112° |
| 2026-05-05 12:34 | 47.55972 | 7.81164 | 14447 ft | 287 kts | 112° |
| 2026-05-05 12:35 | 47.55307 | 7.83969 | 13879 ft | 290 kts | 113° |
| 2026-05-05 12:35 | 47.54638 | 7.86780 | 13345 ft | 289 kts | 113° |
| 2026-05-05 12:35 | 47.53970 | 7.89580 | 12814 ft | 287 kts | 113° |
| 2026-05-05 12:35 | 47.53307 | 7.92360 | 12262 ft | 285 kts | 113° |
| 2026-05-05 12:36 | 47.52651 | 7.95124 | 11713 ft | 284 kts | 113° |
| 2026-05-05 12:36 | 47.52005 | 7.97864 | 11230 ft | 280 kts | 113° |
| 2026-05-05 12:36 | 47.51367 | 8.00571 | 10728 ft | 278 kts | 113° |
| 2026-05-05 12:36 | 47.50743 | 8.03214 | 10473 ft | 266 kts | 114° |
| 2026-05-05 12:37 | 47.49985 | 8.05630 | 10134 ft | 252 kts | 132° |
| 2026-05-05 12:37 | 47.48739 | 8.07277 | 9696 ft | 240 kts | 156° |
| 2026-05-05 12:37 | 47.47177 | 8.08029 | 9184 ft | 231 kts | 179° |
| 2026-05-05 12:37 | 47.45631 | 8.07845 | 8667 ft | 225 kts | 199° |
| 2026-05-05 12:38 | 47.44253 | 8.06830 | 8161 ft | 221 kts | 219° |
| 2026-05-05 12:38 | 47.43236 | 8.05149 | 7665 ft | 221 kts | 239° |
| 2026-05-05 12:38 | 47.42712 | 8.03019 | 7164 ft | 223 kts | 260° |
| 2026-05-05 12:38 | 47.42778 | 8.00746 | 6907 ft | 224 kts | 280° |
| 2026-05-05 12:39 | 47.43217 | 7.98505 | 6885 ft | 228 kts | 285° |
| 2026-05-05 12:39 | 47.43761 | 7.96287 | 6879 ft | 231 kts | 292° |
| 2026-05-05 12:39 | 47.44811 | 7.94455 | 6885 ft | 242 kts | 321° |
| 2026-05-05 12:39 | 47.46366 | 7.93446 | 6757 ft | 249 kts | 346° |
| 2026-05-05 12:40 | 47.48102 | 7.93424 | 6638 ft | 254 kts | 10° |
| 2026-05-05 12:40 | 47.49720 | 7.94448 | 6514 ft | 256 kts | 36° |
| 2026-05-05 12:40 | 47.50901 | 7.96389 | 6381 ft | 255 kts | 62° |
| 2026-05-05 12:40 | 47.51554 | 7.98815 | 6158 ft | 252 kts | 73° |
| 2026-05-05 12:41 | 47.52132 | 8.01266 | 6110 ft | 253 kts | 72° |
| 2026-05-05 12:41 | 47.52710 | 8.03719 | 6053 ft | 252 kts | 72° |
| 2026-05-05 12:41 | 47.53288 | 8.06165 | 5993 ft | 252 kts | 72° |
| 2026-05-05 12:41 | 47.53863 | 8.08606 | 5941 ft | 251 kts | 72° |
| 2026-05-05 12:42 | 47.54437 | 8.11044 | 5884 ft | 251 kts | 72° |
| 2026-05-05 12:42 | 47.55009 | 8.13482 | 5821 ft | 251 kts | 72° |
| 2026-05-05 12:42 | 47.55579 | 8.15923 | 5767 ft | 250 kts | 72° |
| 2026-05-05 12:42 | 47.56148 | 8.18361 | 5703 ft | 251 kts | 72° |
| 2026-05-05 12:43 | 47.56714 | 8.20800 | 5653 ft | 250 kts | 72° |
| 2026-05-05 12:43 | 47.57268 | 8.23190 | 5602 ft | 248 kts | 72° |
| 2026-05-05 12:43 | 47.57828 | 8.25616 | 5550 ft | 250 kts | 72° |
| 2026-05-05 12:43 | 47.58396 | 8.28072 | 5474 ft | 253 kts | 71° |
| 2026-05-05 12:44 | 47.58964 | 8.30523 | 5373 ft | 250 kts | 71° |
| 2026-05-05 12:44 | 47.59506 | 8.32964 | 5105 ft | 249 kts | 78° |
| 2026-05-05 12:44 | 47.59620 | 8.35502 | 4775 ft | 248 kts | 97° |
| 2026-05-05 12:44 | 47.59137 | 8.37968 | 4394 ft | 250 kts | 118° |
| 2026-05-05 12:45 | 47.58122 | 8.40024 | 4084 ft | 247 kts | 138° |
| 2026-05-05 12:45 | 47.56878 | 8.41731 | 3770 ft | 239 kts | 139° |
| 2026-05-05 12:45 | 47.55676 | 8.43379 | 3452 ft | 232 kts | 139° |
| 2026-05-05 12:45 | 47.54529 | 8.44955 | 3164 ft | 216 kts | 140° |
| 2026-05-05 12:46 | 47.53482 | 8.46392 | 2876 ft | 192 kts | 140° |
| 2026-05-05 12:46 | 47.52547 | 8.47673 | 2654 ft | 176 kts | 140° |
| 2026-05-05 12:46 | 47.51691 | 8.48845 | 2407 ft | 162 kts | 139° |
| 2026-05-05 12:46 | 47.50888 | 8.49943 | 2170 ft | 154 kts | 138° |